Latest Weather Observations for Keith West

IDS60801

Issued at 9:01 pm CST Sunday 20 August 2017 (issued every 30 minutes, with the page automatically refreshed every 10 minutes)

About weather observations | Map of weather stations | Latest weather observations for SA | Other Formats
Station Details ID: 025557 Name: MUNKORA Lat: -36.11 Lon: 140.33 Height: 27.0 m
Data from the previous 72 hours. | See also: Recent months at Keith West
Date/Time
CST
Temp
°C
App
Temp
°C
Dew
Point
°C
Rel
Hum
%
Delta-T
°C
Wind Press
QNH
hPa
Press
MSL
hPa
Rain since
9am
mm
Dir  Spd
km/h
Gust
km/h
Spd
kts
Gust
kts
20/09:00pm 7.8 3.7 4.4 79 1.5 N 15 20 8 11 1016.7 1016.7 0.6
20/08:30pm 8.5 5.1 4.1 74 1.9 N 11 33 6 18 1016.7 1016.7 0.0
20/08:00pm 9.3 6.2 3.5 67 2.5 NNE 9 11 5 6 1016.1 1016.1 0.0
20/07:30pm 9.1 5.9 3.1 66 2.6 NE 9 11 5 6 1016.2 1016.2 0.0
20/07:00pm 9.1 5.9 3.1 66 2.6 NE 9 11 5 6 1016.1 1016.1 0.0
20/06:30pm 9.2 6.0 2.8 64 2.7 NE 9 11 5 6 1016.1 1016.1 0.0
20/06:00pm 9.1 5.8 2.7 64 2.7 NE 9 9 5 5 1016.2 1016.2 0.0
20/05:30pm 10.0 6.7 2.4 59 3.2 NE 9 13 5 7 1016.6 1016.6 0.0
20/05:00pm 10.5 7.2 2.6 58 3.4 NNE 9 11 5 6 1016.9 1016.9 0.0
20/04:30pm 11.1 7.5 2.9 57 3.6 NNE 11 13 6 7 1017.3 1017.3 0.0
20/04:00pm 12.2 8.1 2.1 50 4.4 NNE 13 19 7 10 1017.5 1017.5 0.0
20/03:30pm 12.4 8.0 2.6 51 4.3 NNE 15 20 8 11 1017.6 1017.6 0.0
20/03:00pm 12.4 7.9 2.3 50 4.4 NNE 15 24 8 13 1018.1 1018.1 0.0
20/02:30pm 12.6 7.4 2.7 51 4.3 NNE 19 28 10 15 1018.3 1018.4 0.0
20/02:00pm 13.3 7.9 2.2 47 4.8 NNE 20 32 11 17 1019.0 1019.1 0.0
20/01:30pm 13.5 7.7 2.4 47 4.9 NNE 22 30 12 16 1019.5 1019.6 0.0
20/01:00pm 13.7 8.5 2.6 47 4.9 NNE 19 28 10 15 1020.2 1020.3 0.0
20/12:30pm 13.0 6.8 2.3 48 4.6 NE 24 32 13 17 1021.2 1021.3 0.0
20/12:00pm 11.8 7.6 3.8 58 3.6 NNE 15 24 8 13 1021.9 1022.0 0.0
20/11:30am 11.4 6.9 4.2 61 3.2 NNE 17 22 9 12 1022.9 1023.0 0.0
20/11:00am 10.4 4.4 3.2 61 3.1 NNE 24 30 13 16 1023.3 1023.4 0.0
20/10:30am - - - - - NNE 22 32 12 17 1024.2 1024.3 0.0
20/10:00am - - - - - NE 22 28 12 15 1024.8 1024.9 0.0
20/09:30am - - - - - NNE 17 22 9 12 1025.5 1025.6 0.0
20/09:00am - - - - - NE 17 24 9 13 1025.6 1025.7 0.0
20/08:30am - - - - - NE 19 28 10 15 1026.0 1026.1 0.0
20/08:00am - - - - - NE 17 20 9 11 1026.2 1026.3 0.0
20/07:30am - - - - - NE 15 20 8 11 1026.1 1026.2 0.0
20/07:00am - - - - - NE 13 19 7 10 1026.0 1026.1 0.0
20/06:30am - - - - - NE 9 13 5 7 1026.2 1026.3 0.0
20/06:00am - - - - - ENE 9 11 5 6 1026.3 1026.4 0.0
20/05:30am - - - - - NE 7 9 4 5 1026.4 1026.5 0.0
20/05:00am - - - - - NE 7 11 4 6 1026.6 1026.7 0.0
20/04:30am 1.6 -2.4 0.3 91 0.5 NE 11 15 6 8 1026.2 1026.3 0.0
20/04:00am 0.2 -3.6 -0.8 93 0.4 ENE 9 17 5 9 1026.0 1026.1 0.0
20/03:30am 0.2 -2.6 -0.5 95 0.3 ENE 4 6 2 3 1026.5 1026.6 0.0
20/03:00am -0.1 -3.3 -0.8 95 0.2 E 6 6 3 3 1026.3 1026.4 0.0
20/02:30am 0.3 -2.5 -0.4 95 0.2 ENE 4 4 2 2 1026.7 1026.8 0.0
20/02:00am 0.4 -2.4 -0.5 94 0.3 NE 4 4 2 2 1026.9 1027.0 0.0
20/01:30am 0.8 -1.6 -0.1 94 0.3 NE 2 2 1 1 1026.8 1026.9 0.0
20/01:00am 1.3 -1.8 0.4 94 0.3 ENE 6 6 3 3 1026.9 1027.0 0.0
20/12:30am 0.9 -1.8 0.0 94 0.3 ENE 4 4 2 2 1027.0 1027.1 0.0
20/12:00am 1.0 -2.1 0.1 94 0.3 NE 6 6 3 3 1027.2 1027.3 0.0
 
Date/Time
CST
Temp
°C
App
Temp
°C
Dew
Point
°C
Rel
Hum
%
Delta-T
°C
Wind Press
QNH
hPa
Press
MSL
hPa
Rain since
9am
mm
Dir  Spd
km/h
Gust
km/h
Spd
kts
Gust
kts
19/11:30pm 1.1 -1.7 -0.1 92 0.4 WNW 4 6 2 3 1027.7 1027.8 0.0
19/11:00pm 0.2 -2.7 -1.4 89 0.6 WNW 4 4 2 2 1027.8 1027.9 0.0
19/10:30pm 1.9 -0.4 0.4 90 0.6 WNW 2 4 1 2 1027.9 1028.0 0.0
19/10:00pm 1.4 -1.0 -0.5 87 0.7 WNW 2 6 1 3 1028.1 1028.2 0.0
19/09:30pm 2.7 -0.4 1.1 89 0.6 SSE 7 9 4 5 1028.3 1028.4 0.0
19/09:00pm 2.4 0.1 0.6 88 0.7 S 2 4 1 2 1028.4 1028.5 0.0
19/08:30pm 2.7 -0.4 1.2 90 0.6 SSW 7 9 4 5 1028.4 1028.5 0.0
19/08:00pm 4.2 2.5 2.1 86 0.8 CALM 0 0 0 0 1028.2 1028.3 0.0
19/07:30pm 5.7 4.3 3.7 87 0.8 CALM 0 0 0 0 1028.3 1028.4 0.0
19/07:00pm 5.9 3.2 2.7 80 1.3 E 6 6 3 3 1028.3 1028.4 0.0
19/06:30pm 6.9 5.6 3.9 81 1.3 CALM 0 2 0 1 1028.5 1028.6 0.0
19/06:00pm 7.8 5.6 3.5 74 1.8 ESE 4 6 2 3 1028.1 1028.2 0.0
19/05:30pm 8.5 5.3 3.1 69 2.3 ESE 9 9 5 5 1027.8 1027.9 0.0
19/05:00pm 11.1 8.5 3.2 58 3.5 SSE 6 6 3 3 1027.4 1027.5 0.0
19/04:30pm 12.1 9.4 3.9 57 3.7 SSE 7 11 4 6 1027.3 1027.4 0.0
19/04:00pm 12.7 10.1 4.2 56 3.9 SSE 7 13 4 7 1027.3 1027.4 0.0
19/03:30pm 12.7 10.1 4.2 56 3.8 S 7 11 4 6 1027.3 1027.4 0.0
19/03:00pm 13.3 10.3 2.2 47 4.8 S 7 13 4 7 1027.5 1027.6 0.0
19/02:30pm 13.6 11.1 3.9 52 4.4 S 6 15 3 8 1027.8 1027.9 0.0
19/02:00pm 12.3 8.7 2.7 52 4.2 S 11 15 6 8 1028.2 1028.3 0.0
19/01:30pm 13.8 11.7 5.7 58 3.8 S 6 17 3 9 1028.3 1028.4 0.0
19/01:00pm 12.1 8.7 3.9 57 3.7 S 11 17 6 9 1028.7 1028.8 0.0
19/12:30pm 12.1 9.8 4.6 60 3.4 S 6 7 3 4 1029.0 1029.1 0.0
19/12:00pm 12.8 10.7 5.7 62 3.3 SSE 6 7 3 4 1029.3 1029.4 0.0
19/11:30am 13.0 11.0 6.1 63 3.2 S 6 11 3 6 1029.4 1029.5 0.0
19/11:00am 12.0 9.8 5.4 64 3.1 S 6 9 3 5 1029.8 1029.9 0.0
19/10:30am 11.3 9.4 5.0 65 2.9 SW 4 7 2 4 1029.8 1029.9 0.0
19/10:00am 10.9 9.1 5.2 68 2.6 W 4 6 2 3 1029.8 1029.9 0.0
19/09:30am 9.4 7.7 4.2 70 2.3 WSW 2 6 1 3 1029.7 1029.8 0.0
19/09:00am 8.2 6.4 5.3 82 1.3 WSW 4 6 2 3 1029.7 1029.8 0.8
19/08:30am 7.2 6.0 6.5 95 0.3 W 2 4 1 2 1029.3 1029.4 0.8
19/08:00am 5.8 3.9 5.1 95 0.3 W 4 4 2 2 1028.9 1029.0 0.8
19/07:30am 2.5 0.0 1.8 95 0.3 W 4 4 2 2 1028.4 1028.5 0.8
19/07:00am 3.2 0.9 2.5 95 0.3 W 4 4 2 2 1027.9 1028.0 0.8
19/06:30am 4.1 1.3 3.4 95 0.3 W 7 11 4 6 1027.6 1027.7 0.8
19/06:00am 3.9 1.7 3.2 95 0.3 WNW 4 4 2 2 1027.2 1027.3 0.6
19/05:30am 2.9 0.9 2.2 95 0.3 WNW 2 6 1 3 1026.8 1026.9 0.6
19/05:00am 2.5 0.0 1.8 95 0.3 WNW 4 6 2 3 1026.6 1026.7 0.6
19/04:30am 1.8 -1.3 1.1 95 0.3 NW 7 9 4 5 1026.2 1026.3 0.6
19/04:00am 2.0 -0.5 1.3 95 0.3 NNW 4 6 2 3 1025.8 1025.9 0.6
19/03:30am 1.3 -1.0 0.4 94 0.3 NNW 2 2 1 1 1025.6 1025.7 0.6
19/03:00am 2.6 -0.2 1.9 95 0.3 NNW 6 6 3 3 1025.4 1025.5 0.6
19/02:30am 2.1 -0.5 1.2 94 0.3 WNW 4 7 2 4 1025.5 1025.6 0.6
19/02:00am 1.8 -1.2 0.9 94 0.3 W 6 7 3 4 1025.5 1025.6 0.6
19/01:30am 1.0 -2.3 0.0 93 0.4 W 7 7 4 4 1025.5 1025.6 0.6
19/01:00am 3.4 1.4 2.5 94 0.4 W 2 2 1 1 1025.3 1025.4 0.6
19/12:30am 3.0 0.0 1.8 92 0.5 W 7 9 4 5 1025.3 1025.4 0.6
19/12:00am 4.9 2.4 3.9 93 0.4 WSW 6 7 3 4 1025.2 1025.3 0.6
 
Date/Time
CST
Temp
°C
App
Temp
°C
Dew
Point
°C
Rel
Hum
%
Delta-T
°C
Wind Press
QNH
hPa
Press
MSL
hPa
Rain since
9am
mm
Dir  Spd
km/h
Gust
km/h
Spd
kts
Gust
kts
18/11:30pm 4.5 1.8 3.5 93 0.4 WSW 7 9 4 5 1025.2 1025.3 0.6
18/11:00pm 2.1 -0.5 0.9 92 0.5 WNW 4 6 2 3 1025.4 1025.5 0.6
18/10:30pm 2.2 -1.4 0.9 91 0.5 WNW 9 9 5 5 1025.1 1025.2 0.6
18/10:00pm 2.6 -0.9 1.0 89 0.6 W 9 9 5 5 1025.0 1025.1 0.6
18/09:30pm 5.0 2.2 3.2 88 0.7 W 7 7 4 4 1024.8 1024.9 0.6
18/09:00pm 4.9 1.7 3.2 89 0.7 WSW 9 13 5 7 1024.5 1024.6 0.6
18/08:30pm 3.9 1.0 2.6 91 0.5 WNW 7 7 4 4 1024.3 1024.4 0.6
18/08:00pm 4.3 1.4 2.5 88 0.7 WNW 7 9 4 5 1024.0 1024.1 0.6
18/07:30pm 6.3 3.3 4.1 86 0.9 W 9 13 5 7 1023.7 1023.8 0.6
18/07:00pm 6.0 3.3 3.7 85 1.0 WSW 7 9 4 5 1023.3 1023.4 0.4
18/06:30pm 7.5 4.2 4.6 82 1.3 WSW 11 19 6 10 1022.9 1023.0 0.4
18/06:00pm 8.3 4.4 5.2 81 1.4 WSW 15 20 8 11 1022.6 1022.7 0.4
18/05:30pm 9.2 4.2 4.4 72 2.1 WSW 20 33 11 18 1022.2 1022.3 0.4
18/05:00pm 10.6 4.1 4.5 66 2.7 WSW 28 37 15 20 1021.7 1021.8 0.4
18/04:30pm 11.1 3.7 4.1 62 3.1 WSW 32 46 17 25 1021.2 1021.3 0.4
18/04:00pm 11.8 4.3 3.6 57 3.6 WSW 32 48 17 26 1021.0 1021.1 0.4
18/03:34pm 12.2 4.4 5.1 62 3.3 WSW 35 54 19 29 1020.8 1020.9 0.4
18/03:30pm 12.2 3.6 4.7 60 3.4 WSW 39 54 21 29 1020.7 1020.8 0.4
18/03:00pm 11.7 3.4 4.2 60 3.4 WSW 37 54 20 29 1020.4 1020.5 0.4
18/02:56pm 11.7 3.6 3.5 57 3.6 WSW 35 54 19 29 1020.3 1020.4 0.4
18/02:30pm 12.0 3.0 4.5 60 3.4 WSW 41 57 22 31 1020.2 1020.3 0.4
18/02:05pm 12.2 5.9 5.8 65 3.0 WSW 28 48 15 26 1019.8 1019.9 0.4
18/02:00pm 11.9 6.2 6.8 71 2.4 WSW 26 33 14 18 1019.8 1019.9 0.4
18/01:30pm 10.1 3.0 5.3 72 2.2 SW 32 52 17 28 1019.8 1019.9 0.2
18/01:01pm 11.4 2.4 4.8 64 3.0 WSW 41 67 22 36 1019.6 1019.7 0.0
18/01:00pm 11.8 2.8 4.8 62 3.2 WSW 41 67 22 36 1019.5 1019.6 0.0
18/12:34pm 12.6 5.7 6.6 67 2.9 WSW 32 52 17 28 1019.5 1019.6 0.0
18/12:30pm 12.0 5.3 5.6 65 3.0 WSW 30 44 16 24 1019.5 1019.6 0.0
18/12:15pm 9.5 1.0 5.1 74 2.0 WSW 39 57 21 31 1019.7 1019.8 0.0
18/12:00pm 13.0 4.8 4.9 58 3.7 WSW 37 50 20 27 1019.3 1019.4 0.0
18/11:30am 12.6 4.9 5.5 62 3.3 WSW 35 50 19 27 1019.2 1019.3 0.0
18/11:00am 12.2 4.0 4.9 61 3.3 WSW 37 48 20 26 1019.2 1019.3 0.0
18/10:30am 10.9 3.5 4.8 66 2.8 WSW 33 48 18 26 1018.9 1019.0 0.0
18/10:10am 11.9 5.5 5.1 63 3.1 WSW 28 46 15 25 1018.7 1018.8 0.0
18/10:00am 11.5 5.7 6.2 70 2.5 WSW 26 37 14 20 1018.6 1018.7 0.0
18/09:30am 11.7 4.3 5.1 64 3.0 WSW 33 44 18 24 1017.9 1017.9 0.0
18/09:00am 11.0 6.3 6.0 71 2.3 W 20 30 11 16 1017.7 1017.7 9.8
18/08:30am 9.8 4.9 5.0 72 2.2 WSW 20 28 11 15 1017.1 1017.1 9.8
18/08:00am 8.9 1.5 3.9 71 2.2 WSW 32 43 17 23 1016.6 1016.6 9.8
18/07:30am 8.3 3.5 4.5 77 1.7 WSW 19 24 10 13 1015.9 1015.9 9.8
18/07:00am 7.1 2.2 3.9 80 1.4 W 19 24 10 13 1015.4 1015.4 9.8
18/06:30am 6.2 2.4 4.0 86 0.9 WNW 13 15 7 8 1015.0 1015.0 9.6
18/06:00am 7.7 2.9 4.8 82 1.3 W 19 26 10 14 1014.4 1014.4 9.6
18/05:30am 7.5 1.4 4.8 83 1.2 W 26 33 14 18 1014.0 1014.0 9.6
18/05:00am 7.6 1.6 3.3 74 1.8 W 24 32 13 17 1013.5 1013.5 9.6
18/04:32am 8.7 2.1 4.1 73 2.0 W 28 50 15 27 1013.2 1013.2 9.4
18/04:30am 8.5 2.3 4.1 74 1.9 W 26 39 14 21 1013.1 1013.1 9.4
18/04:00am 7.6 2.1 4.2 79 1.5 W 22 32 12 17 1012.6 1012.6 9.4
18/03:30am 6.7 2.6 4.5 86 1.0 WNW 15 17 8 9 1012.2 1012.2 9.4
18/03:00am 8.0 2.7 4.8 80 1.4 W 22 30 12 16 1012.1 1012.1 9.4
18/02:42am 8.2 0.7 4.6 78 1.6 WSW 33 48 18 26 1011.7 1011.7 9.2
18/02:30am 7.3 1.9 4.4 82 1.3 W 22 30 12 16 1011.5 1011.5 9.2
18/02:00am 8.1 0.7 5.0 81 1.4 WSW 33 61 18 33 1011.8 1011.8 9.0
18/01:53am 8.2 1.8 5.0 80 1.4 W 28 61 15 33 1011.5 1011.5 9.0
18/01:30am 8.2 2.1 4.6 78 1.6 W 26 35 14 19 1011.0 1011.0 8.2
18/01:00am 8.7 1.6 5.3 79 1.5 W 32 41 17 22 1010.7 1010.7 8.2
18/12:36am 8.0 3.7 5.3 83 1.2 W 17 39 9 21 1010.6 1010.6 8.2
18/12:30am 7.8 4.8 5.8 87 0.9 W 11 19 6 10 1010.8 1010.8 8.0
18/12:00am 7.7 3.4 5.2 84 1.1 WNW 17 24 9 13 1010.3 1010.3 7.2
 
Date/Time
CST
Temp
°C
App
Temp
°C
Dew
Point
°C
Rel
Hum
%
Delta-T
°C
Wind Press
QNH
hPa
Press
MSL
hPa
Rain since
9am
mm
Dir  Spd
km/h
Gust
km/h
Spd
kts
Gust
kts
17/11:30pm 7.4 2.5 5.0 85 1.1 WNW 20 28 11 15 1010.1 1010.1 7.2
17/11:02pm 7.5 0.3 5.0 84 1.1 W 32 52 17 28 1009.8 1009.8 7.2
17/11:00pm 7.5 -0.3 5.0 84 1.1 W 35 52 19 28 1009.7 1009.7 7.2
17/10:48pm 8.2 1.4 5.3 82 1.3 W 30 59 16 32 1010.0 1010.0 7.2
17/10:30pm 8.3 4.1 5.9 85 1.1 WNW 17 26 9 14 1009.7 1009.7 6.2
17/10:00pm 7.2 3.3 5.2 87 0.9 NW 15 17 8 9 1009.7 1009.7 5.8
17/09:30pm 7.7 0.3 5.0 83 1.2 WNW 33 48 18 26 1009.3 1009.3 5.8
17/09:23pm 7.9 1.5 5.4 84 1.1 WNW 28 48 15 26 1009.2 1009.2 5.8

Other Formats:

Comma delimited format used in spreadsheet applications
http://www.bom.gov.au/fwo/IDS60801/IDS60801.95815.axf

JavaScript Object Notation format (JSON) in row-major order
http://www.bom.gov.au/fwo/IDS60801/IDS60801.95815.json